sensor_id;sensor_type;location;lat;lon;timestamp;P1;durP1;ratioP1;P2;durP2;ratioP2
63005;SDS011;53704;52.532;6.426;2023-04-06T00:01:24;8.48;;;7.70;;
63005;SDS011;53704;52.532;6.426;2023-04-06T00:03:50;12.52;;;8.48;;
63005;SDS011;53704;52.532;6.426;2023-04-06T00:06:15;8.77;;;7.75;;
63005;SDS011;53704;52.532;6.426;2023-04-06T00:08:41;7.53;;;7.03;;
63005;SDS011;53704;52.532;6.426;2023-04-06T00:11:07;8.13;;;7.35;;
63005;SDS011;53704;52.532;6.426;2023-04-06T00:13:32;12.70;;;7.40;;
63005;SDS011;53704;52.532;6.426;2023-04-06T00:15:58;13.90;;;7.53;;
63005;SDS011;53704;52.532;6.426;2023-04-06T00:18:23;8.65;;;7.47;;
63005;SDS011;53704;52.532;6.426;2023-04-06T00:20:49;10.38;;;7.28;;
63005;SDS011;53704;52.532;6.426;2023-04-06T00:23:15;14.32;;;7.82;;
63005;SDS011;53704;52.532;6.426;2023-04-06T00:25:41;9.00;;;7.68;;
63005;SDS011;53704;52.532;6.426;2023-04-06T00:28:06;10.07;;;7.85;;
63005;SDS011;53704;52.532;6.426;2023-04-06T00:30:32;10.30;;;7.32;;
63005;SDS011;53704;52.532;6.426;2023-04-06T00:32:57;7.13;;;6.60;;
63005;SDS011;53704;52.532;6.426;2023-04-06T00:35:23;8.20;;;7.00;;
63005;SDS011;53704;52.532;6.426;2023-04-06T00:37:48;13.90;;;7.38;;
63005;SDS011;53704;52.532;6.426;2023-04-06T00:40:14;8.32;;;7.47;;
63005;SDS011;53704;52.532;6.426;2023-04-06T00:42:40;9.10;;;6.53;;
63005;SDS011;53704;52.532;6.426;2023-04-06T00:45:06;15.18;;;7.70;;
63005;SDS011;53704;52.532;6.426;2023-04-06T00:47:32;11.23;;;7.25;;
63005;SDS011;53704;52.532;6.426;2023-04-06T00:49:58;8.57;;;6.78;;
63005;SDS011;53704;52.532;6.426;2023-04-06T00:52:24;8.93;;;8.05;;
63005;SDS011;53704;52.532;6.426;2023-04-06T00:54:50;9.38;;;7.78;;
63005;SDS011;53704;52.532;6.426;2023-04-06T00:57:16;11.70;;;7.68;;
63005;SDS011;53704;52.532;6.426;2023-04-06T00:59:42;8.35;;;7.50;;
63005;SDS011;53704;52.532;6.426;2023-04-06T01:02:11;9.75;;;7.43;;
63005;SDS011;53704;52.532;6.426;2023-04-06T01:04:37;8.50;;;7.70;;
63005;SDS011;53704;52.532;6.426;2023-04-06T01:07:02;12.75;;;8.68;;
63005;SDS011;53704;52.532;6.426;2023-04-06T01:09:28;12.25;;;7.65;;
63005;SDS011;53704;52.532;6.426;2023-04-06T01:11:57;8.65;;;7.68;;
63005;SDS011;53704;52.532;6.426;2023-04-06T01:14:26;9.13;;;8.00;;
63005;SDS011;53704;52.532;6.426;2023-04-06T01:16:52;14.63;;;8.07;;
63005;SDS011;53704;52.532;6.426;2023-04-06T01:19:18;10.35;;;7.90;;
63005;SDS011;53704;52.532;6.426;2023-04-06T01:21:43;10.88;;;7.63;;
63005;SDS011;53704;52.532;6.426;2023-04-06T01:24:09;16.85;;;8.07;;
63005;SDS011;53704;52.532;6.426;2023-04-06T01:26:35;8.63;;;7.80;;
63005;SDS011;53704;52.532;6.426;2023-04-06T01:29:04;9.07;;;7.97;;
63005;SDS011;53704;52.532;6.426;2023-04-06T01:31:29;11.48;;;8.25;;
63005;SDS011;53704;52.532;6.426;2023-04-06T01:33:55;12.55;;;6.85;;
63005;SDS011;53704;52.532;6.426;2023-04-06T01:36:21;8.98;;;7.32;;
63005;SDS011;53704;52.532;6.426;2023-04-06T01:38:46;8.15;;;7.35;;
63005;SDS011;53704;52.532;6.426;2023-04-06T01:41:12;8.70;;;6.95;;
63005;SDS011;53704;52.532;6.426;2023-04-06T01:43:40;8.68;;;7.38;;
63005;SDS011;53704;52.532;6.426;2023-04-06T01:46:06;13.52;;;8.10;;
63005;SDS011;53704;52.532;6.426;2023-04-06T01:48:31;12.85;;;7.72;;
63005;SDS011;53704;52.532;6.426;2023-04-06T01:50:56;8.68;;;7.88;;
63005;SDS011;53704;52.532;6.426;2023-04-06T01:53:22;9.52;;;8.45;;
63005;SDS011;53704;52.532;6.426;2023-04-06T01:55:47;8.82;;;7.88;;
63005;SDS011;53704;52.532;6.426;2023-04-06T01:58:14;9.80;;;7.78;;
63005;SDS011;53704;52.532;6.426;2023-04-06T02:00:40;9.48;;;8.45;;
63005;SDS011;53704;52.532;6.426;2023-04-06T02:03:06;11.93;;;7.93;;
63005;SDS011;53704;52.532;6.426;2023-04-06T02:05:32;9.77;;;7.93;;
63005;SDS011;53704;52.532;6.426;2023-04-06T02:08:06;13.63;;;8.30;;
63005;SDS011;53704;52.532;6.426;2023-04-06T02:10:32;10.38;;;8.50;;
63005;SDS011;53704;52.532;6.426;2023-04-06T02:12:59;10.07;;;9.02;;
63005;SDS011;53704;52.532;6.426;2023-04-06T02:15:25;11.68;;;8.60;;
63005;SDS011;53704;52.532;6.426;2023-04-06T02:17:51;14.88;;;8.77;;
63005;SDS011;53704;52.532;6.426;2023-04-06T02:20:16;8.95;;;8.23;;
63005;SDS011;53704;52.532;6.426;2023-04-06T02:22:42;11.20;;;8.30;;
63005;SDS011;53704;52.532;6.426;2023-04-06T02:25:08;11.05;;;8.88;;
63005;SDS011;53704;52.532;6.426;2023-04-06T02:27:33;11.63;;;8.82;;
63005;SDS011;53704;52.532;6.426;2023-04-06T02:29:59;10.13;;;9.02;;
63005;SDS011;53704;52.532;6.426;2023-04-06T02:32:25;11.35;;;9.25;;
63005;SDS011;53704;52.532;6.426;2023-04-06T02:34:50;13.88;;;9.70;;
63005;SDS011;53704;52.532;6.426;2023-04-06T02:37:16;9.82;;;8.82;;
63005;SDS011;53704;52.532;6.426;2023-04-06T02:39:42;11.00;;;9.45;;
63005;SDS011;53704;52.532;6.426;2023-04-06T02:42:08;13.07;;;9.70;;
63005;SDS011;53704;52.532;6.426;2023-04-06T02:44:36;18.20;;;9.65;;
63005;SDS011;53704;52.532;6.426;2023-04-06T02:47:01;10.05;;;8.65;;
63005;SDS011;53704;52.532;6.426;2023-04-06T02:49:27;13.48;;;9.48;;
63005;SDS011;53704;52.532;6.426;2023-04-06T02:51:52;14.55;;;8.75;;
63005;SDS011;53704;52.532;6.426;2023-04-06T02:54:18;8.90;;;8.13;;
63005;SDS011;53704;52.532;6.426;2023-04-06T02:56:43;10.68;;;9.27;;
63005;SDS011;53704;52.532;6.426;2023-04-06T02:59:09;12.25;;;8.95;;
63005;SDS011;53704;52.532;6.426;2023-04-06T03:01:35;13.40;;;9.52;;
63005;SDS011;53704;52.532;6.426;2023-04-06T03:04:01;9.98;;;8.98;;
63005;SDS011;53704;52.532;6.426;2023-04-06T03:06:26;13.60;;;9.93;;
63005;SDS011;53704;52.532;6.426;2023-04-06T03:08:52;14.20;;;9.30;;
63005;SDS011;53704;52.532;6.426;2023-04-06T03:11:17;10.10;;;9.07;;
63005;SDS011;53704;52.532;6.426;2023-04-06T03:13:43;13.13;;;9.60;;
63005;SDS011;53704;52.532;6.426;2023-04-06T03:16:08;10.05;;;9.07;;
63005;SDS011;53704;52.532;6.426;2023-04-06T03:18:34;10.25;;;9.25;;
63005;SDS011;53704;52.532;6.426;2023-04-06T03:21:00;13.57;;;9.75;;
63005;SDS011;53704;52.532;6.426;2023-04-06T03:23:26;14.13;;;9.18;;
63005;SDS011;53704;52.532;6.426;2023-04-06T03:25:51;13.13;;;10.45;;
63005;SDS011;53704;52.532;6.426;2023-04-06T03:28:16;10.10;;;9.10;;
63005;SDS011;53704;52.532;6.426;2023-04-06T03:30:42;15.10;;;9.57;;
63005;SDS011;53704;52.532;6.426;2023-04-06T03:33:07;13.80;;;10.20;;
63005;SDS011;53704;52.532;6.426;2023-04-06T03:35:33;12.25;;;9.63;;
63005;SDS011;53704;52.532;6.426;2023-04-06T03:37:58;14.40;;;9.55;;
63005;SDS011;53704;52.532;6.426;2023-04-06T03:40:24;13.98;;;9.88;;
63005;SDS011;53704;52.532;6.426;2023-04-06T03:42:49;10.90;;;9.82;;
63005;SDS011;53704;52.532;6.426;2023-04-06T03:45:15;16.42;;;11.02;;
63005;SDS011;53704;52.532;6.426;2023-04-06T03:47:41;11.77;;;9.65;;
63005;SDS011;53704;52.532;6.426;2023-04-06T03:50:06;17.75;;;11.15;;
63005;SDS011;53704;52.532;6.426;2023-04-06T03:52:32;14.98;;;9.95;;
63005;SDS011;53704;52.532;6.426;2023-04-06T03:54:57;14.00;;;10.38;;
63005;SDS011;53704;52.532;6.426;2023-04-06T03:57:23;10.80;;;9.75;;
63005;SDS011;53704;52.532;6.426;2023-04-06T03:59:48;14.52;;;10.10;;
63005;SDS011;53704;52.532;6.426;2023-04-06T04:02:14;20.55;;;10.40;;
63005;SDS011;53704;52.532;6.426;2023-04-06T04:04:39;13.30;;;9.35;;
63005;SDS011;53704;52.532;6.426;2023-04-06T04:07:05;19.58;;;10.18;;
63005;SDS011;53704;52.532;6.426;2023-04-06T04:09:30;12.07;;;9.70;;
63005;SDS011;53704;52.532;6.426;2023-04-06T04:11:56;14.68;;;9.98;;
63005;SDS011;53704;52.532;6.426;2023-04-06T04:14:21;11.00;;;9.90;;
63005;SDS011;53704;52.532;6.426;2023-04-06T04:16:46;10.82;;;9.65;;
63005;SDS011;53704;52.532;6.426;2023-04-06T04:19:12;18.17;;;9.95;;
63005;SDS011;53704;52.532;6.426;2023-04-06T04:21:44;15.85;;;11.13;;
63005;SDS011;53704;52.532;6.426;2023-04-06T04:24:11;11.70;;;10.55;;
63005;SDS011;53704;52.532;6.426;2023-04-06T04:26:37;12.00;;;10.25;;
63005;SDS011;53704;52.532;6.426;2023-04-06T04:29:03;16.02;;;9.65;;
63005;SDS011;53704;52.532;6.426;2023-04-06T04:31:28;10.30;;;9.35;;
63005;SDS011;53704;52.532;6.426;2023-04-06T04:33:54;18.67;;;10.27;;
63005;SDS011;53704;52.532;6.426;2023-04-06T04:36:20;11.85;;;10.18;;
63005;SDS011;53704;52.532;6.426;2023-04-06T04:38:45;13.05;;;10.95;;
63005;SDS011;53704;52.532;6.426;2023-04-06T04:41:11;11.93;;;10.45;;
63005;SDS011;53704;52.532;6.426;2023-04-06T04:43:36;11.23;;;9.63;;
63005;SDS011;53704;52.532;6.426;2023-04-06T04:46:02;16.48;;;10.93;;
63005;SDS011;53704;52.532;6.426;2023-04-06T04:48:29;11.43;;;10.07;;
63005;SDS011;53704;52.532;6.426;2023-04-06T04:50:54;17.92;;;10.60;;
63005;SDS011;53704;52.532;6.426;2023-04-06T04:53:20;11.35;;;10.15;;
63005;SDS011;53704;52.532;6.426;2023-04-06T04:55:45;12.95;;;10.02;;
63005;SDS011;53704;52.532;6.426;2023-04-06T04:58:11;13.95;;;11.38;;
63005;SDS011;53704;52.532;6.426;2023-04-06T05:00:40;13.35;;;10.13;;
63005;SDS011;53704;52.532;6.426;2023-04-06T05:03:06;12.13;;;10.93;;
63005;SDS011;53704;52.532;6.426;2023-04-06T05:05:31;12.75;;;10.35;;
63005;SDS011;53704;52.532;6.426;2023-04-06T05:07:57;11.18;;;10.00;;
63005;SDS011;53704;52.532;6.426;2023-04-06T05:10:22;18.17;;;11.10;;
63005;SDS011;53704;52.532;6.426;2023-04-06T05:12:48;15.15;;;10.00;;
63005;SDS011;53704;52.532;6.426;2023-04-06T05:15:13;12.15;;;10.38;;
63005;SDS011;53704;52.532;6.426;2023-04-06T05:17:39;11.55;;;10.18;;
63005;SDS011;53704;52.532;6.426;2023-04-06T05:20:05;13.13;;;10.07;;
63005;SDS011;53704;52.532;6.426;2023-04-06T05:22:31;15.57;;;10.55;;
63005;SDS011;53704;52.532;6.426;2023-04-06T05:24:56;12.40;;;10.43;;
63005;SDS011;53704;52.532;6.426;2023-04-06T05:27:21;13.07;;;10.27;;
63005;SDS011;53704;52.532;6.426;2023-04-06T05:29:47;14.27;;;10.75;;
63005;SDS011;53704;52.532;6.426;2023-04-06T05:32:12;12.52;;;11.23;;
63005;SDS011;53704;52.532;6.426;2023-04-06T05:34:38;11.80;;;10.20;;
63005;SDS011;53704;52.532;6.426;2023-04-06T05:37:04;17.65;;;12.18;;
63005;SDS011;53704;52.532;6.426;2023-04-06T05:39:30;14.93;;;11.52;;
63005;SDS011;53704;52.532;6.426;2023-04-06T05:41:55;15.32;;;10.48;;
63005;SDS011;53704;52.532;6.426;2023-04-06T05:44:21;18.77;;;11.20;;
63005;SDS011;53704;52.532;6.426;2023-04-06T05:46:46;14.32;;;11.05;;
63005;SDS011;53704;52.532;6.426;2023-04-06T05:49:12;17.75;;;11.82;;
63005;SDS011;53704;52.532;6.426;2023-04-06T05:51:37;16.05;;;11.68;;
63005;SDS011;53704;52.532;6.426;2023-04-06T05:54:03;16.20;;;11.23;;
63005;SDS011;53704;52.532;6.426;2023-04-06T05:56:28;16.40;;;11.52;;
63005;SDS011;53704;52.532;6.426;2023-04-06T05:58:55;17.65;;;11.90;;
63005;SDS011;53704;52.532;6.426;2023-04-06T06:01:20;19.63;;;12.18;;
63005;SDS011;53704;52.532;6.426;2023-04-06T06:03:46;15.52;;;11.30;;
63005;SDS011;53704;52.532;6.426;2023-04-06T06:06:11;15.85;;;12.27;;
63005;SDS011;53704;52.532;6.426;2023-04-06T06:08:37;15.70;;;11.52;;
63005;SDS011;53704;52.532;6.426;2023-04-06T06:11:02;22.27;;;11.77;;
63005;SDS011;53704;52.532;6.426;2023-04-06T06:13:28;17.25;;;12.18;;
63005;SDS011;53704;52.532;6.426;2023-04-06T06:15:53;17.83;;;12.38;;
63005;SDS011;53704;52.532;6.426;2023-04-06T06:18:19;14.68;;;11.98;;
63005;SDS011;53704;52.532;6.426;2023-04-06T06:20:44;16.05;;;11.52;;
63005;SDS011;53704;52.532;6.426;2023-04-06T06:23:10;18.52;;;13.15;;
63005;SDS011;53704;52.532;6.426;2023-04-06T06:25:36;18.02;;;13.02;;
63005;SDS011;53704;52.532;6.426;2023-04-06T06:28:01;17.98;;;13.23;;
63005;SDS011;53704;52.532;6.426;2023-04-06T06:30:27;18.38;;;12.15;;
63005;SDS011;53704;52.532;6.426;2023-04-06T06:32:52;18.27;;;13.27;;
63005;SDS011;53704;52.532;6.426;2023-04-06T06:35:18;21.02;;;13.55;;
63005;SDS011;53704;52.532;6.426;2023-04-06T06:37:43;19.38;;;13.00;;
63005;SDS011;53704;52.532;6.426;2023-04-06T06:40:09;20.40;;;12.25;;
63005;SDS011;53704;52.532;6.426;2023-04-06T06:42:38;17.25;;;12.55;;
63005;SDS011;53704;52.532;6.426;2023-04-06T06:45:04;14.48;;;11.63;;
63005;SDS011;53704;52.532;6.426;2023-04-06T06:47:30;18.88;;;12.82;;
63005;SDS011;53704;52.532;6.426;2023-04-06T06:49:56;20.73;;;12.45;;
63005;SDS011;53704;52.532;6.426;2023-04-06T06:52:22;17.25;;;12.80;;
63005;SDS011;53704;52.532;6.426;2023-04-06T06:54:49;15.85;;;11.85;;
63005;SDS011;53704;52.532;6.426;2023-04-06T06:57:14;17.13;;;12.20;;
63005;SDS011;53704;52.532;6.426;2023-04-06T06:59:43;17.65;;;12.23;;
63005;SDS011;53704;52.532;6.426;2023-04-06T07:02:08;16.67;;;12.40;;
63005;SDS011;53704;52.532;6.426;2023-04-06T07:04:34;17.88;;;12.15;;
63005;SDS011;53704;52.532;6.426;2023-04-06T07:07:00;20.63;;;13.55;;
63005;SDS011;53704;52.532;6.426;2023-04-06T07:09:26;16.58;;;12.73;;
63005;SDS011;53704;52.532;6.426;2023-04-06T07:11:51;23.42;;;12.70;;
63005;SDS011;53704;52.532;6.426;2023-04-06T07:14:17;18.15;;;12.55;;
63005;SDS011;53704;52.532;6.426;2023-04-06T07:16:42;20.02;;;13.55;;
63005;SDS011;53704;52.532;6.426;2023-04-06T07:19:10;18.23;;;13.40;;
63005;SDS011;53704;52.532;6.426;2023-04-06T07:21:36;17.15;;;12.55;;
63005;SDS011;53704;52.532;6.426;2023-04-06T07:24:01;15.80;;;11.40;;
63005;SDS011;53704;52.532;6.426;2023-04-06T07:26:27;19.77;;;12.88;;
63005;SDS011;53704;52.532;6.426;2023-04-06T07:28:52;16.00;;;12.07;;
63005;SDS011;53704;52.532;6.426;2023-04-06T07:31:18;23.98;;;12.73;;
63005;SDS011;53704;52.532;6.426;2023-04-06T07:33:43;24.65;;;13.88;;
63005;SDS011;53704;52.532;6.426;2023-04-06T07:36:10;19.65;;;12.45;;
63005;SDS011;53704;52.532;6.426;2023-04-06T07:38:35;19.73;;;13.10;;
63005;SDS011;53704;52.532;6.426;2023-04-06T07:41:00;22.00;;;12.85;;
63005;SDS011;53704;52.532;6.426;2023-04-06T07:43:29;19.23;;;13.23;;
63005;SDS011;53704;52.532;6.426;2023-04-06T07:45:55;20.52;;;13.35;;
63005;SDS011;53704;52.532;6.426;2023-04-06T07:48:22;17.42;;;13.07;;
63005;SDS011;53704;52.532;6.426;2023-04-06T07:50:48;19.80;;;13.00;;
63005;SDS011;53704;52.532;6.426;2023-04-06T07:53:13;17.73;;;12.68;;
63005;SDS011;53704;52.532;6.426;2023-04-06T07:55:39;17.52;;;12.57;;
63005;SDS011;53704;52.532;6.426;2023-04-06T07:58:04;17.75;;;11.98;;
63005;SDS011;53704;52.532;6.426;2023-04-06T08:00:30;17.48;;;12.65;;
63005;SDS011;53704;52.532;6.426;2023-04-06T08:02:55;22.70;;;12.60;;
63005;SDS011;53704;52.532;6.426;2023-04-06T08:05:21;16.17;;;13.40;;
63005;SDS011;53704;52.532;6.426;2023-04-06T08:07:46;17.67;;;11.93;;
63005;SDS011;53704;52.532;6.426;2023-04-06T08:10:12;20.20;;;13.00;;
63005;SDS011;53704;52.532;6.426;2023-04-06T08:12:37;12.75;;;11.23;;
63005;SDS011;53704;52.532;6.426;2023-04-06T08:15:03;16.27;;;11.70;;
63005;SDS011;53704;52.532;6.426;2023-04-06T08:17:29;21.10;;;13.35;;
63005;SDS011;53704;52.532;6.426;2023-04-06T08:19:56;21.42;;;12.88;;
63005;SDS011;53704;52.532;6.426;2023-04-06T08:22:22;24.30;;;12.98;;
63005;SDS011;53704;52.532;6.426;2023-04-06T08:24:47;18.73;;;13.05;;
63005;SDS011;53704;52.532;6.426;2023-04-06T08:27:13;15.13;;;11.30;;
63005;SDS011;53704;52.532;6.426;2023-04-06T08:29:39;16.42;;;12.55;;
63005;SDS011;53704;52.532;6.426;2023-04-06T08:32:05;24.30;;;13.63;;
63005;SDS011;53704;52.532;6.426;2023-04-06T08:34:34;24.13;;;13.15;;
63005;SDS011;53704;52.532;6.426;2023-04-06T08:36:59;21.50;;;14.23;;
63005;SDS011;53704;52.532;6.426;2023-04-06T08:39:25;19.27;;;13.25;;
63005;SDS011;53704;52.532;6.426;2023-04-06T08:41:52;19.38;;;12.40;;
63005;SDS011;53704;52.532;6.426;2023-04-06T08:44:21;24.70;;;13.20;;
63005;SDS011;53704;52.532;6.426;2023-04-06T08:46:47;20.27;;;14.05;;
63005;SDS011;53704;52.532;6.426;2023-04-06T08:49:13;17.65;;;13.30;;
63005;SDS011;53704;52.532;6.426;2023-04-06T08:51:41;29.75;;;13.80;;
63005;SDS011;53704;52.532;6.426;2023-04-06T08:54:07;18.92;;;13.82;;
63005;SDS011;53704;52.532;6.426;2023-04-06T08:56:32;22.95;;;13.48;;
63005;SDS011;53704;52.532;6.426;2023-04-06T08:59:02;21.90;;;13.82;;
63005;SDS011;53704;52.532;6.426;2023-04-06T09:01:28;23.27;;;13.52;;
63005;SDS011;53704;52.532;6.426;2023-04-06T09:03:56;24.52;;;13.07;;
63005;SDS011;53704;52.532;6.426;2023-04-06T09:06:24;20.67;;;13.77;;
63005;SDS011;53704;52.532;6.426;2023-04-06T09:08:53;22.77;;;14.60;;
63005;SDS011;53704;52.532;6.426;2023-04-06T09:11:19;23.45;;;14.65;;
63005;SDS011;53704;52.532;6.426;2023-04-06T09:16:12;22.33;;;15.30;;
63005;SDS011;53704;52.532;6.426;2023-04-06T09:18:40;35.97;;;19.25;;
63005;SDS011;53704;52.532;6.426;2023-04-06T09:21:07;19.60;;;12.93;;
63005;SDS011;53704;52.532;6.426;2023-04-06T09:23:33;21.65;;;14.13;;
63005;SDS011;53704;52.532;6.426;2023-04-06T09:28:43;29.85;;;14.48;;
63005;SDS011;53704;52.532;6.426;2023-04-06T09:31:13;34.67;;;15.30;;
63005;SDS011;53704;52.532;6.426;2023-04-06T09:33:41;21.63;;;15.43;;
63005;SDS011;53704;52.532;6.426;2023-04-06T09:36:09;24.15;;;15.80;;
63005;SDS011;53704;52.532;6.426;2023-04-06T09:38:36;25.23;;;15.55;;
63005;SDS011;53704;52.532;6.426;2023-04-06T09:41:03;27.48;;;15.88;;
63005;SDS011;53704;52.532;6.426;2023-04-06T09:43:32;21.05;;;14.95;;
63005;SDS011;53704;52.532;6.426;2023-04-06T09:45:57;32.20;;;17.30;;
63005;SDS011;53704;52.532;6.426;2023-04-06T09:48:25;36.05;;;19.67;;
63005;SDS011;53704;52.532;6.426;2023-04-06T09:50:54;32.38;;;17.08;;
63005;SDS011;53704;52.532;6.426;2023-04-06T09:53:25;29.25;;;16.58;;
63005;SDS011;53704;52.532;6.426;2023-04-06T09:55:51;27.05;;;16.05;;
63005;SDS011;53704;52.532;6.426;2023-04-06T09:58:22;25.38;;;17.17;;
63005;SDS011;53704;52.532;6.426;2023-04-06T10:00:55;26.58;;;15.88;;
63005;SDS011;53704;52.532;6.426;2023-04-06T10:06:26;29.88;;;16.75;;
63005;SDS011;53704;52.532;6.426;2023-04-06T10:08:57;24.52;;;16.58;;
63005;SDS011;53704;52.532;6.426;2023-04-06T10:11:24;28.35;;;16.92;;
63005;SDS011;53704;52.532;6.426;2023-04-06T10:13:50;26.48;;;17.55;;
63005;SDS011;53704;52.532;6.426;2023-04-06T10:16:16;25.25;;;16.63;;
63005;SDS011;53704;52.532;6.426;2023-04-06T10:18:44;29.80;;;17.58;;
63005;SDS011;53704;52.532;6.426;2023-04-06T10:21:14;23.95;;;18.02;;
63005;SDS011;53704;52.532;6.426;2023-04-06T10:23:52;23.88;;;17.15;;
63005;SDS011;53704;52.532;6.426;2023-04-06T10:26:21;30.05;;;18.65;;
63005;SDS011;53704;52.532;6.426;2023-04-06T10:28:47;23.23;;;17.27;;
63005;SDS011;53704;52.532;6.426;2023-04-06T10:31:14;23.45;;;17.45;;
63005;SDS011;53704;52.532;6.426;2023-04-06T10:33:39;30.10;;;18.08;;
63005;SDS011;53704;52.532;6.426;2023-04-06T10:36:15;28.63;;;17.67;;
63005;SDS011;53704;52.532;6.426;2023-04-06T10:38:47;42.85;;;19.38;;
63005;SDS011;53704;52.532;6.426;2023-04-06T10:41:12;25.98;;;18.80;;
63005;SDS011;53704;52.532;6.426;2023-04-06T10:43:39;30.13;;;19.88;;
63005;SDS011;53704;52.532;6.426;2023-04-06T10:46:09;26.58;;;19.33;;
63005;SDS011;53704;52.532;6.426;2023-04-06T10:48:39;27.23;;;18.77;;
63005;SDS011;53704;52.532;6.426;2023-04-06T10:51:17;35.03;;;20.90;;
63005;SDS011;53704;52.532;6.426;2023-04-06T10:53:44;27.10;;;18.95;;
63005;SDS011;53704;52.532;6.426;2023-04-06T10:56:13;25.70;;;19.27;;
63005;SDS011;53704;52.532;6.426;2023-04-06T10:58:46;28.45;;;19.60;;
63005;SDS011;53704;52.532;6.426;2023-04-06T11:01:20;27.50;;;19.98;;
63005;SDS011;53704;52.532;6.426;2023-04-06T11:03:55;33.33;;;20.00;;
63005;SDS011;53704;52.532;6.426;2023-04-06T11:06:25;28.42;;;19.90;;
63005;SDS011;53704;52.532;6.426;2023-04-06T11:08:52;30.10;;;21.00;;
63005;SDS011;53704;52.532;6.426;2023-04-06T11:11:19;28.10;;;19.83;;
63005;SDS011;53704;52.532;6.426;2023-04-06T11:16:12;33.00;;;20.88;;
63005;SDS011;53704;52.532;6.426;2023-04-06T11:18:51;35.90;;;20.75;;
63005;SDS011;53704;52.532;6.426;2023-04-06T11:21:18;32.70;;;20.05;;
63005;SDS011;53704;52.532;6.426;2023-04-06T11:24:07;36.10;;;20.48;;
63005;SDS011;53704;52.532;6.426;2023-04-06T11:26:37;28.17;;;20.13;;
63005;SDS011;53704;52.532;6.426;2023-04-06T11:29:26;23.20;;;18.00;;
63005;SDS011;53704;52.532;6.426;2023-04-06T11:34:25;33.38;;;21.98;;
63005;SDS011;53704;52.532;6.426;2023-04-06T11:36:57;30.27;;;20.92;;
63005;SDS011;53704;52.532;6.426;2023-04-06T11:39:24;25.88;;;20.05;;
63005;SDS011;53704;52.532;6.426;2023-04-06T11:41:52;32.45;;;21.42;;
63005;SDS011;53704;52.532;6.426;2023-04-06T11:44:37;34.78;;;19.80;;
63005;SDS011;53704;52.532;6.426;2023-04-06T11:47:05;41.40;;;20.67;;
63005;SDS011;53704;52.532;6.426;2023-04-06T11:49:32;30.42;;;19.60;;
63005;SDS011;53704;52.532;6.426;2023-04-06T11:52:13;35.38;;;19.85;;
63005;SDS011;53704;52.532;6.426;2023-04-06T11:54:43;25.17;;;19.73;;
63005;SDS011;53704;52.532;6.426;2023-04-06T11:57:09;27.63;;;20.05;;
63005;SDS011;53704;52.532;6.426;2023-04-06T11:59:35;24.73;;;18.77;;
63005;SDS011;53704;52.532;6.426;2023-04-06T12:02:01;26.27;;;18.38;;
63005;SDS011;53704;52.532;6.426;2023-04-06T12:04:27;29.45;;;20.45;;
63005;SDS011;53704;52.532;6.426;2023-04-06T12:06:53;25.98;;;19.98;;
63005;SDS011;53704;52.532;6.426;2023-04-06T12:09:18;28.02;;;19.90;;
63005;SDS011;53704;52.532;6.426;2023-04-06T12:11:44;30.23;;;19.55;;
63005;SDS011;53704;52.532;6.426;2023-04-06T12:14:10;28.05;;;19.50;;
63005;SDS011;53704;52.532;6.426;2023-04-06T12:16:37;25.70;;;18.67;;
63005;SDS011;53704;52.532;6.426;2023-04-06T12:19:02;27.55;;;18.17;;
63005;SDS011;53704;52.532;6.426;2023-04-06T12:21:28;23.23;;;18.23;;
63005;SDS011;53704;52.532;6.426;2023-04-06T12:23:54;27.02;;;17.05;;
63005;SDS011;53704;52.532;6.426;2023-04-06T12:26:20;21.30;;;17.13;;
63005;SDS011;53704;52.532;6.426;2023-04-06T12:28:46;21.40;;;17.90;;
63005;SDS011;53704;52.532;6.426;2023-04-06T12:31:18;23.13;;;16.80;;
63005;SDS011;53704;52.532;6.426;2023-04-06T12:33:48;24.52;;;15.95;;
63005;SDS011;53704;52.532;6.426;2023-04-06T12:36:15;21.35;;;15.82;;
63005;SDS011;53704;52.532;6.426;2023-04-06T12:38:46;22.55;;;15.10;;
63005;SDS011;53704;52.532;6.426;2023-04-06T12:41:12;13.63;;;11.13;;
63005;SDS011;53704;52.532;6.426;2023-04-06T12:43:41;16.38;;;13.25;;
63005;SDS011;53704;52.532;6.426;2023-04-06T12:46:07;15.15;;;13.27;;
63005;SDS011;53704;52.532;6.426;2023-04-06T12:48:33;17.52;;;12.75;;
63005;SDS011;53704;52.532;6.426;2023-04-06T12:51:00;14.43;;;11.65;;
63005;SDS011;53704;52.532;6.426;2023-04-06T12:53:27;11.73;;;9.68;;
63005;SDS011;53704;52.532;6.426;2023-04-06T12:55:53;21.73;;;10.75;;
63005;SDS011;53704;52.532;6.426;2023-04-06T12:58:20;15.93;;;10.35;;
63005;SDS011;53704;52.532;6.426;2023-04-06T13:00:46;15.07;;;10.80;;
63005;SDS011;53704;52.532;6.426;2023-04-06T13:03:12;15.93;;;10.70;;
63005;SDS011;53704;52.532;6.426;2023-04-06T13:05:44;11.60;;;9.82;;
63005;SDS011;53704;52.532;6.426;2023-04-06T13:08:10;16.25;;;9.65;;
63005;SDS011;53704;52.532;6.426;2023-04-06T13:10:36;11.18;;;10.10;;
63005;SDS011;53704;52.532;6.426;2023-04-06T13:13:03;11.93;;;10.23;;
63005;SDS011;53704;52.532;6.426;2023-04-06T13:15:28;11.43;;;10.23;;
63005;SDS011;53704;52.532;6.426;2023-04-06T13:17:54;13.45;;;12.20;;
63005;SDS011;53704;52.532;6.426;2023-04-06T13:20:19;13.70;;;12.25;;
63005;SDS011;53704;52.532;6.426;2023-04-06T13:22:45;14.88;;;12.07;;
63005;SDS011;53704;52.532;6.426;2023-04-06T13:25:10;16.10;;;12.38;;
63005;SDS011;53704;52.532;6.426;2023-04-06T13:27:35;19.08;;;12.18;;
63005;SDS011;53704;52.532;6.426;2023-04-06T13:30:01;16.48;;;11.85;;
63005;SDS011;53704;52.532;6.426;2023-04-06T13:32:28;17.08;;;11.95;;
63005;SDS011;53704;52.532;6.426;2023-04-06T13:34:56;16.17;;;11.23;;
63005;SDS011;53704;52.532;6.426;2023-04-06T13:37:22;16.80;;;11.32;;
63005;SDS011;53704;52.532;6.426;2023-04-06T13:39:48;14.52;;;11.45;;
63005;SDS011;53704;52.532;6.426;2023-04-06T13:42:13;17.70;;;11.25;;
63005;SDS011;53704;52.532;6.426;2023-04-06T13:44:39;14.20;;;11.80;;
63005;SDS011;53704;52.532;6.426;2023-04-06T13:47:04;15.43;;;10.60;;
63005;SDS011;53704;52.532;6.426;2023-04-06T13:49:30;20.02;;;11.52;;
63005;SDS011;53704;52.532;6.426;2023-04-06T13:51:56;13.20;;;11.75;;
63005;SDS011;53704;52.532;6.426;2023-04-06T13:54:21;13.80;;;11.95;;
63005;SDS011;53704;52.532;6.426;2023-04-06T13:56:47;16.73;;;11.65;;
63005;SDS011;53704;52.532;6.426;2023-04-06T13:59:12;15.43;;;11.98;;
63005;SDS011;53704;52.532;6.426;2023-04-06T14:01:41;13.02;;;11.68;;
63005;SDS011;53704;52.532;6.426;2023-04-06T14:04:06;14.27;;;12.73;;
63005;SDS011;53704;52.532;6.426;2023-04-06T14:06:32;16.58;;;11.77;;
63005;SDS011;53704;52.532;6.426;2023-04-06T14:08:57;18.48;;;13.38;;
63005;SDS011;53704;52.532;6.426;2023-04-06T14:11:23;15.27;;;13.70;;
63005;SDS011;53704;52.532;6.426;2023-04-06T14:13:49;19.95;;;13.95;;
63005;SDS011;53704;52.532;6.426;2023-04-06T14:16:14;23.67;;;14.68;;
63005;SDS011;53704;52.532;6.426;2023-04-06T14:18:40;15.73;;;14.23;;
63005;SDS011;53704;52.532;6.426;2023-04-06T14:21:05;19.55;;;14.65;;
63005;SDS011;53704;52.532;6.426;2023-04-06T14:23:31;30.50;;;20.80;;
63005;SDS011;53704;52.532;6.426;2023-04-06T14:26:04;28.92;;;16.70;;
63005;SDS011;53704;52.532;6.426;2023-04-06T14:28:34;38.63;;;23.75;;
63005;SDS011;53704;52.532;6.426;2023-04-06T14:31:01;35.88;;;21.45;;
63005;SDS011;53704;52.532;6.426;2023-04-06T14:33:30;23.83;;;17.42;;
63005;SDS011;53704;52.532;6.426;2023-04-06T14:35:55;184.85;;;84.50;;